Time;durP1;ratioP1;P1;durP2;ratioP2;P2;SDS_P1;SDS_P2;PMS_P1;PMS_P2;Temp;Humidity;BMP_temperature;BMP_pressure;BME280_temperature;BME280_humidity;BME280_pressure;Samples;Min_cycle;Max_cycle;Signal;HPM_P1;HPM_P2
2022/01/29 00:00:19;;;;;;;10.65;4.07;;;;;;;;;;5054313;28;20086;-63
2022/01/29 00:02:45;;;;;;;12.88;4.20;;;;;;;;;;5053998;28;20052;-63
2022/01/29 00:05:11;;;;;;;13.48;4.63;;;;;;;;;;5054150;28;20036;-63
2022/01/29 00:07:41;;;;;;;12.95;4.07;;;;;;;;;;5054258;28;20070;-63
2022/01/29 00:10:07;;;;;;;11.00;3.72;;;;;;;;;;5053948;28;20033;-63
2022/01/29 00:12:33;;;;;;;12.27;4.13;;;;;;;;;;5052720;28;20030;-63
2022/01/29 00:14:59;;;;;;;9.73;3.65;;;;;;;;;;5054000;28;20071;-63
2022/01/29 00:17:26;;;;;;;11.32;3.58;;;;;;;;;;5054196;28;20055;-63
2022/01/29 00:19:52;;;;;;;8.80;3.38;;;;;;;;;;5054195;28;20057;-63
2022/01/29 00:22:18;;;;;;;12.85;3.67;;;;;;;;;;5053975;28;20032;-63
2022/01/29 00:24:44;;;;;;;11.68;3.65;;;;;;;;;;5053861;28;20439;-65
2022/01/29 00:27:11;;;;;;;7.88;3.75;;;;;;;;;;5053885;28;20021;-63
2022/01/29 00:29:39;;;;;;;9.02;2.92;;;;;;;;;;5053853;28;20094;-63
2022/01/29 00:32:06;;;;;;;9.43;3.42;;;;;;;;;;5053844;28;20025;-63
2022/01/29 00:34:32;;;;;;;10.15;3.40;;;;;;;;;;5053658;28;20025;-63
2022/01/29 00:36:58;;;;;;;11.27;3.65;;;;;;;;;;5053602;28;20060;-63
2022/01/29 00:39:24;;;;;;;9.35;3.20;;;;;;;;;;5053444;28;20025;-63
2022/01/29 00:41:50;;;;;;;11.82;3.33;;;;;;;;;;5053898;28;20029;-63
2022/01/29 00:44:16;;;;;;;8.32;3.10;;;;;;;;;;5053746;28;20112;-63
2022/01/29 00:46:42;;;;;;;8.43;2.95;;;;;;;;;;5053866;28;20032;-63
2022/01/29 00:49:09;;;;;;;8.60;3.15;;;;;;;;;;5053353;28;20481;-63
2022/01/29 00:51:35;;;;;;;10.73;3.15;;;;;;;;;;5053505;28;20105;-64
2022/01/29 00:54:01;;;;;;;11.05;3.17;;;;;;;;;;5052611;28;20036;-64
2022/01/29 00:56:27;;;;;;;9.43;2.85;;;;;;;;;;5053511;28;20021;-64
2022/01/29 00:58:53;;;;;;;10.13;3.28;;;;;;;;;;5053625;28;20040;-64
2022/01/29 01:01:19;;;;;;;9.55;3.22;;;;;;;;;;5053421;28;20025;-66
2022/01/29 01:03:45;;;;;;;9.85;3.53;;;;;;;;;;5053302;28;20025;-63
2022/01/29 01:06:11;;;;;;;9.82;3.30;;;;;;;;;;5052927;28;20024;-63
2022/01/29 01:08:37;;;;;;;10.25;3.40;;;;;;;;;;5053050;28;20468;-63
2022/01/29 01:11:04;;;;;;;8.20;3.33;;;;;;;;;;5052487;28;20045;-63
2022/01/29 01:13:33;;;;;;;7.07;3.20;;;;;;;;;;5053073;28;20048;-63
2022/01/29 01:15:59;;;;;;;7.30;2.80;;;;;;;;;;5053053;28;20094;-63
2022/01/29 01:18:25;;;;;;;10.52;3.60;;;;;;;;;;5052741;28;20029;-63
2022/01/29 01:20:51;;;;;;;10.55;3.75;;;;;;;;;;5051651;28;20029;-63
2022/01/29 01:23:18;;;;;;;9.57;3.50;;;;;;;;;;5052887;28;20103;-63
2022/01/29 01:25:44;;;;;;;11.15;3.60;;;;;;;;;;5052665;28;20021;-64
2022/01/29 01:28:10;;;;;;;10.30;3.17;;;;;;;;;;5052574;28;20542;-63
2022/01/29 01:30:36;;;;;;;7.65;2.88;;;;;;;;;;5052975;28;20444;-63
2022/01/29 01:33:03;;;;;;;10.63;3.42;;;;;;;;;;5052519;28;20029;-63
2022/01/29 01:35:38;;;;;;;9.43;3.33;;;;;;;;;;5052636;28;20029;-64
2022/01/29 01:38:18;;;;;;;9.63;2.53;;;;;;;;;;5052457;28;20020;-63
2022/01/29 01:40:50;;;;;;;10.52;2.70;;;;;;;;;;5052457;28;20065;-63
2022/01/29 01:43:16;;;;;;;10.02;2.72;;;;;;;;;;5052716;28;20043;-63
2022/01/29 01:45:42;;;;;;;9.35;2.92;;;;;;;;;;5052342;28;20017;-63
2022/01/29 01:48:09;;;;;;;8.68;2.72;;;;;;;;;;5052380;28;20086;-63
2022/01/29 01:50:35;;;;;;;8.90;2.72;;;;;;;;;;5052410;28;20029;-63
2022/01/29 01:53:01;;;;;;;16.85;2.88;;;;;;;;;;5052513;28;20028;-63
2022/01/29 01:55:27;;;;;;;6.45;2.47;;;;;;;;;;5052209;28;20146;-63
2022/01/29 01:57:54;;;;;;;7.60;2.60;;;;;;;;;;5052074;28;20557;-63
2022/01/29 02:00:20;;;;;;;9.02;2.67;;;;;;;;;;5052114;28;20473;-63
2022/01/29 02:02:46;;;;;;;7.18;2.40;;;;;;;;;;5052085;28;20025;-63
2022/01/29 02:05:12;;;;;;;5.78;1.95;;;;;;;;;;5051973;28;20100;-63
2022/01/29 02:07:39;;;;;;;10.75;2.47;;;;;;;;;;5051899;28;20127;-63
2022/01/29 02:10:08;;;;;;;6.90;2.45;;;;;;;;;;5051565;28;20404;-63
2022/01/29 02:12:44;;;;;;;7.68;2.58;;;;;;;;;;5051809;28;20112;-62
2022/01/29 02:15:11;;;;;;;11.70;2.47;;;;;;;;;;5051796;28;20049;-63
2022/01/29 02:17:37;;;;;;;9.32;2.72;;;;;;;;;;5051782;28;20025;-63
2022/01/29 02:20:04;;;;;;;9.00;2.47;;;;;;;;;;5051979;28;20021;-63
2022/01/29 02:22:30;;;;;;;10.00;2.38;;;;;;;;;;5051859;28;20124;-63
2022/01/29 02:24:56;;;;;;;11.00;2.72;;;;;;;;;;5051839;28;20029;-63
2022/01/29 02:27:22;;;;;;;9.90;2.50;;;;;;;;;;5051696;28;20056;-63
2022/01/29 02:29:49;;;;;;;9.85;2.58;;;;;;;;;;5051564;28;20037;-63
2022/01/29 02:32:15;;;;;;;7.32;2.67;;;;;;;;;;5051613;28;20029;-62
2022/01/29 02:34:43;;;;;;;16.65;3.05;;;;;;;;;;5051531;28;20029;-63
2022/01/29 02:37:09;;;;;;;10.60;2.40;;;;;;;;;;5051210;28;20365;-63
2022/01/29 02:39:36;;;;;;;10.52;2.30;;;;;;;;;;5051335;28;20095;-63
2022/01/29 02:42:02;;;;;;;6.75;2.58;;;;;;;;;;5051649;28;20041;-63
2022/01/29 02:44:30;;;;;;;11.30;3.70;;;;;;;;;;5051503;28;20435;-63
2022/01/29 02:47:08;;;;;;;11.60;3.20;;;;;;;;;;5051391;28;20396;-63
2022/01/29 02:49:34;;;;;;;12.30;2.92;;;;;;;;;;5050996;28;20037;-63
2022/01/29 02:52:01;;;;;;;9.43;2.85;;;;;;;;;;5051239;28;20025;-63
2022/01/29 02:54:27;;;;;;;10.18;2.80;;;;;;;;;;5051320;28;20033;-63
2022/01/29 02:56:53;;;;;;;12.73;2.90;;;;;;;;;;5051328;28;20104;-63
2022/01/29 02:59:20;;;;;;;10.82;2.80;;;;;;;;;;5051010;28;20455;-63
2022/01/29 03:01:46;;;;;;;10.82;2.70;;;;;;;;;;5052181;28;20021;-63
2022/01/29 03:04:12;;;;;;;10.75;2.45;;;;;;;;;;5052431;28;20021;-63
2022/01/29 03:06:38;;;;;;;9.80;2.88;;;;;;;;;;5051396;28;20104;-63
2022/01/29 03:09:05;;;;;;;8.38;2.38;;;;;;;;;;5050799;28;20119;-63
2022/01/29 03:11:31;;;;;;;11.15;2.65;;;;;;;;;;5050669;28;20036;-62
2022/01/29 03:13:57;;;;;;;8.52;2.60;;;;;;;;;;5050756;28;20408;-63
2022/01/29 03:16:23;;;;;;;9.02;2.90;;;;;;;;;;5050669;28;20071;-63
2022/01/29 03:18:49;;;;;;;12.32;2.85;;;;;;;;;;5050944;28;20029;-62
2022/01/29 03:21:15;;;;;;;13.30;3.00;;;;;;;;;;5050913;28;20021;-62
2022/01/29 03:23:42;;;;;;;12.65;3.17;;;;;;;;;;5050777;28;20021;-63
2022/01/29 03:26:08;;;;;;;9.40;2.53;;;;;;;;;;5051037;28;20439;-63
2022/01/29 03:28:34;;;;;;;10.38;2.33;;;;;;;;;;5050809;28;20029;-63
2022/01/29 03:31:00;;;;;;;12.65;3.10;;;;;;;;;;5050939;28;20162;-63
2022/01/29 03:33:26;;;;;;;9.93;3.33;;;;;;;;;;5050668;28;20032;-63
2022/01/29 03:35:52;;;;;;;12.90;3.10;;;;;;;;;;5050862;28;20039;-61
2022/01/29 03:38:18;;;;;;;11.75;3.28;;;;;;;;;;5050640;28;20029;-62
2022/01/29 03:40:47;;;;;;;8.98;2.90;;;;;;;;;;5050849;28;20029;-63
2022/01/29 03:43:22;;;;;;;11.30;3.35;;;;;;;;;;5050755;28;20040;-63
2022/01/29 03:45:49;;;;;;;7.47;2.35;;;;;;;;;;5050860;28;20075;-63
2022/01/29 03:48:15;;;;;;;10.45;2.85;;;;;;;;;;5050451;28;20090;-63
2022/01/29 03:50:41;;;;;;;13.35;3.38;;;;;;;;;;5050658;28;20029;-63
2022/01/29 03:53:07;;;;;;;13.07;4.05;;;;;;;;;;5050718;28;20437;-63
2022/01/29 03:55:33;;;;;;;10.38;3.75;;;;;;;;;;5050467;28;20111;-63
2022/01/29 03:57:59;;;;;;;11.50;3.08;;;;;;;;;;5050432;28;20025;-63
2022/01/29 04:00:25;;;;;;;10.15;2.20;;;;;;;;;;5050497;28;20040;-63
2022/01/29 04:02:51;;;;;;;13.48;2.92;;;;;;;;;;5050491;28;20143;-63
2022/01/29 04:05:17;;;;;;;10.23;3.80;;;;;;;;;;5050500;28;20102;-61
2022/01/29 04:07:43;;;;;;;11.43;3.08;;;;;;;;;;5049833;28;20036;-61
2022/01/29 04:10:11;;;;;;;8.63;2.63;;;;;;;;;;5050322;28;20615;-61
2022/01/29 04:12:42;;;;;;;13.90;3.08;;;;;;;;;;5049366;28;20025;-63
2022/01/29 04:15:09;;;;;;;7.95;2.47;;;;;;;;;;5050224;28;20049;-62
2022/01/29 04:17:35;;;;;;;8.68;2.95;;;;;;;;;;5050282;28;20021;-63
2022/01/29 04:20:02;;;;;;;10.57;2.83;;;;;;;;;;5050062;28;20444;-63
2022/01/29 04:22:28;;;;;;;13.00;3.72;;;;;;;;;;5050242;28;20029;-63
2022/01/29 04:24:54;;;;;;;11.90;2.67;;;;;;;;;;5050460;28;20415;-61
2022/01/29 04:27:29;;;;;;;15.23;3.40;;;;;;;;;;5050722;28;20075;-63
2022/01/29 04:29:59;;;;;;;9.82;2.85;;;;;;;;;;5053880;28;20033;-63
2022/01/29 04:32:44;;;;;;;9.88;2.88;;;;;;;;;;5052370;28;20037;-63
2022/01/29 04:35:10;;;;;;;9.77;2.65;;;;;;;;;;5053638;28;20020;-63
2022/01/29 04:37:36;;;;;;;11.52;2.88;;;;;;;;;;5053836;28;20029;-63
2022/01/29 04:40:02;;;;;;;13.93;2.90;;;;;;;;;;5053854;28;20037;-62
2022/01/29 04:42:28;;;;;;;9.77;2.80;;;;;;;;;;5053506;28;20037;-61
2022/01/29 04:44:54;;;;;;;12.68;2.92;;;;;;;;;;5053527;28;20021;-62
2022/01/29 04:47:20;;;;;;;10.93;2.90;;;;;;;;;;5053503;28;20029;-62
2022/01/29 04:49:46;;;;;;;10.50;3.17;;;;;;;;;;5053487;28;20036;-62
2022/01/29 04:52:12;;;;;;;10.55;2.97;;;;;;;;;;5053336;28;20533;-62
2022/01/29 04:54:38;;;;;;;7.07;2.20;;;;;;;;;;5053519;28;20070;-62
2022/01/29 04:57:04;;;;;;;12.85;2.80;;;;;;;;;;5053353;28;20025;-62
2022/01/29 04:59:30;;;;;;;11.45;2.47;;;;;;;;;;5053422;28;20029;-62
2022/01/29 05:01:56;;;;;;;7.95;2.63;;;;;;;;;;5053183;28;20021;-62
2022/01/29 05:04:22;;;;;;;7.80;2.28;;;;;;;;;;5053206;28;20033;-62
2022/01/29 05:06:48;;;;;;;10.50;2.78;;;;;;;;;;5053193;28;20484;-62
2022/01/29 05:09:15;;;;;;;9.30;2.60;;;;;;;;;;5052974;28;20551;-62
2022/01/29 05:11:45;;;;;;;10.73;2.50;;;;;;;;;;5052983;28;20029;-62
2022/01/29 05:14:19;;;;;;;11.65;2.50;;;;;;;;;;5052874;28;20086;-63
2022/01/29 05:27:44;;;;;;;10.88;2.60;;;;;;;;;;5010772;28;20033;-61
2022/01/29 05:30:10;;;;;;;11.07;2.72;;;;;;;;;;5010801;28;20041;-62
2022/01/29 05:32:36;;;;;;;10.45;2.40;;;;;;;;;;5010678;28;20202;-61
2022/01/29 05:35:03;;;;;;;9.05;2.40;;;;;;;;;;5010339;28;20046;-61
2022/01/29 05:37:29;;;;;;;12.88;2.72;;;;;;;;;;5010597;28;20034;-61
2022/01/29 05:39:55;;;;;;;9.43;2.83;;;;;;;;;;5010099;28;20050;-61
2022/01/29 05:42:21;;;;;;;8.23;3.03;;;;;;;;;;5010290;28;20021;-61
2022/01/29 05:44:47;;;;;;;8.02;2.47;;;;;;;;;;5010298;28;20034;-61
2022/01/29 05:47:13;;;;;;;11.73;2.50;;;;;;;;;;5010371;28;20077;-62
2022/01/29 05:49:39;;;;;;;7.47;2.65;;;;;;;;;;5010142;28;20037;-62
2022/01/29 05:52:05;;;;;;;8.63;3.08;;;;;;;;;;5014907;28;20049;-62
2022/01/29 05:54:31;;;;;;;11.00;3.40;;;;;;;;;;5052209;28;20044;-62
2022/01/29 05:56:57;;;;;;;9.75;2.90;;;;;;;;;;5052299;28;20025;-62
2022/01/29 05:59:23;;;;;;;8.90;2.78;;;;;;;;;;5052179;28;20033;-62
2022/01/29 06:01:49;;;;;;;7.20;2.13;;;;;;;;;;5052121;28;20132;-63
2022/01/29 06:04:15;;;;;;;8.20;2.55;;;;;;;;;;5052008;28;20029;-62
2022/01/29 06:06:41;;;;;;;4.68;1.98;;;;;;;;;;5052054;28;20495;-63
2022/01/29 06:09:08;;;;;;;10.13;2.55;;;;;;;;;;5051709;28;20041;-62
2022/01/29 06:11:34;;;;;;;8.07;2.78;;;;;;;;;;5052010;28;20051;-63
2022/01/29 06:14:00;;;;;;;9.50;2.60;;;;;;;;;;5051904;28;20073;-62
2022/01/29 06:16:26;;;;;;;7.28;2.10;;;;;;;;;;5052009;28;20025;-63
2022/01/29 06:18:52;;;;;;;9.40;2.15;;;;;;;;;;5051706;28;20132;-62
2022/01/29 06:21:19;;;;;;;8.13;2.10;;;;;;;;;;5051699;28;20051;-63
2022/01/29 06:23:45;;;;;;;9.57;2.60;;;;;;;;;;5051541;28;20036;-62
2022/01/29 06:26:12;;;;;;;8.13;2.13;;;;;;;;;;5051545;28;20025;-62
2022/01/29 06:28:39;;;;;;;10.93;2.30;;;;;;;;;;5051600;28;20061;-62
2022/01/29 06:31:05;;;;;;;5.43;2.05;;;;;;;;;;5051501;28;20033;-62
2022/01/29 06:33:31;;;;;;;6.93;2.33;;;;;;;;;;5051205;28;20021;-62
2022/01/29 06:35:57;;;;;;;10.88;2.53;;;;;;;;;;5051538;28;20480;-63
2022/01/29 06:38:24;;;;;;;5.32;2.45;;;;;;;;;;5051538;28;20044;-62
2022/01/29 06:40:50;;;;;;;6.07;2.65;;;;;;;;;;5051418;28;20025;-63
2022/01/29 06:43:17;;;;;;;8.80;2.95;;;;;;;;;;5051593;28;20032;-63
2022/01/29 06:45:44;;;;;;;6.95;2.22;;;;;;;;;;5051376;28;20053;-62
2022/01/29 06:48:10;;;;;;;5.63;2.30;;;;;;;;;;5049818;28;20436;-62
2022/01/29 06:50:37;;;;;;;8.18;3.08;;;;;;;;;;5050427;28;20040;-62
2022/01/29 06:53:03;;;;;;;7.72;3.25;;;;;;;;;;5051297;28;20029;-62
2022/01/29 06:55:29;;;;;;;10.13;3.00;;;;;;;;;;5050083;28;20033;-62
2022/01/29 06:57:55;;;;;;;7.97;2.97;;;;;;;;;;5051133;28;20036;-64
2022/01/29 07:00:21;;;;;;;7.65;2.70;;;;;;;;;;5049815;28;20369;-63
2022/01/29 07:02:47;;;;;;;9.88;3.20;;;;;;;;;;5051023;28;20489;-63
2022/01/29 07:05:13;;;;;;;10.15;3.33;;;;;;;;;;5050916;28;20037;-63
2022/01/29 07:07:39;;;;;;;11.45;5.22;;;;;;;;;;5050983;28;20021;-62
2022/01/29 07:10:06;;;;;;;14.48;5.15;;;;;;;;;;5050922;28;20483;-62
2022/01/29 07:12:34;;;;;;;20.92;7.93;;;;;;;;;;5051008;28;20049;-62
2022/01/29 07:15:00;;;;;;;14.40;4.55;;;;;;;;;;5050787;28;20060;-62
2022/01/29 07:17:26;;;;;;;11.57;4.72;;;;;;;;;;5051101;28;20116;-62
2022/01/29 07:19:53;;;;;;;14.38;6.32;;;;;;;;;;5049777;28;20439;-62
2022/01/29 07:22:19;;;;;;;12.93;5.28;;;;;;;;;;5050993;28;20706;-63
2022/01/29 07:24:46;;;;;;;10.82;3.95;;;;;;;;;;5050650;28;20028;-62
2022/01/29 07:27:13;;;;;;;8.43;3.58;;;;;;;;;;5050833;28;20519;-62
2022/01/29 07:29:39;;;;;;;10.57;3.72;;;;;;;;;;5050378;28;20144;-62
2022/01/29 07:32:05;;;;;;;9.55;2.95;;;;;;;;;;5050586;28;20033;-62
2022/01/29 07:34:32;;;;;;;10.15;3.33;;;;;;;;;;5050338;28;20376;-63
2022/01/29 07:36:58;;;;;;;10.85;3.60;;;;;;;;;;5050682;28;20032;-62
2022/01/29 07:39:25;;;;;;;11.63;3.70;;;;;;;;;;5049503;28;20024;-63
2022/01/29 07:41:51;;;;;;;9.27;3.55;;;;;;;;;;5050304;28;20090;-62
2022/01/29 07:44:17;;;;;;;10.95;3.90;;;;;;;;;;5050168;28;20509;-63
2022/01/29 07:46:44;;;;;;;10.13;3.55;;;;;;;;;;5050670;28;20040;-62
2022/01/29 07:49:10;;;;;;;14.95;4.38;;;;;;;;;;5050646;28;20058;-64
2022/01/29 07:51:36;;;;;;;17.23;5.95;;;;;;;;;;5050413;28;20100;-64
2022/01/29 07:54:02;;;;;;;9.57;4.07;;;;;;;;;;5050667;28;20481;-62
2022/01/29 07:56:28;;;;;;;13.85;4.45;;;;;;;;;;5050454;28;20079;-64
2022/01/29 07:58:54;;;;;;;6.50;2.80;;;;;;;;;;5050700;28;20373;-64
2022/01/29 08:01:20;;;;;;;13.00;3.92;;;;;;;;;;5051139;28;20458;-64
2022/01/29 08:03:48;;;;;;;6.53;2.72;;;;;;;;;;5054286;28;20500;-63
2022/01/29 08:06:14;;;;;;;7.00;3.35;;;;;;;;;;5054186;28;20020;-63
2022/01/29 08:08:40;;;;;;;13.80;3.60;;;;;;;;;;5054248;28;20029;-64
2022/01/29 08:11:07;;;;;;;9.15;4.25;;;;;;;;;;5054167;28;20029;-64
2022/01/29 08:13:34;;;;;;;21.02;9.77;;;;;;;;;;5053938;28;20053;-64
2022/01/29 08:16:00;;;;;;;12.80;5.30;;;;;;;;;;5054487;28;20021;-64
2022/01/29 08:18:26;;;;;;;12.13;6.35;;;;;;;;;;5053904;28;20024;-64
2022/01/29 08:20:52;;;;;;;14.00;7.30;;;;;;;;;;5053788;28;20045;-64
2022/01/29 08:23:18;;;;;;;16.08;8.65;;;;;;;;;;5054116;28;20096;-64
2022/01/29 08:25:44;;;;;;;19.55;9.95;;;;;;;;;;5054073;28;20045;-63
2022/01/29 08:28:10;;;;;;;13.25;7.00;;;;;;;;;;5053938;28;20385;-64
2022/01/29 08:30:36;;;;;;;11.63;5.30;;;;;;;;;;5054127;28;20029;-62
2022/01/29 08:33:03;;;;;;;10.77;2.92;;;;;;;;;;5053793;28;20021;-62
2022/01/29 08:35:29;;;;;;;12.07;4.22;;;;;;;;;;5045052;28;20086;-65
2022/01/29 08:37:56;;;;;;;9.43;4.57;;;;;;;;;;5043613;28;20088;-64
2022/01/29 08:40:23;;;;;;;11.82;3.60;;;;;;;;;;5042335;28;20132;-64
2022/01/29 08:42:49;;;;;;;12.05;4.13;;;;;;;;;;5047485;28;20119;-62
2022/01/29 08:45:15;;;;;;;7.43;3.10;;;;;;;;;;5053284;28;20435;-62
2022/01/29 08:47:41;;;;;;;7.57;3.10;;;;;;;;;;5053674;28;20033;-62
2022/01/29 08:50:09;;;;;;;10.43;3.95;;;;;;;;;;5053470;28;20068;-63
2022/01/29 08:52:35;;;;;;;12.25;3.72;;;;;;;;;;5053485;28;20089;-62
2022/01/29 08:55:01;;;;;;;10.15;3.70;;;;;;;;;;5053400;28;20024;-64
2022/01/29 08:57:27;;;;;;;8.50;3.20;;;;;;;;;;5053293;28;20373;-63
2022/01/29 08:59:53;;;;;;;8.02;3.28;;;;;;;;;;5053272;28;20025;-63
2022/01/29 09:02:19;;;;;;;8.30;3.42;;;;;;;;;;5053055;28;20126;-64
2022/01/29 09:04:45;;;;;;;9.32;3.40;;;;;;;;;;5052926;28;20040;-63
2022/01/29 09:07:11;;;;;;;8.48;3.42;;;;;;;;;;5053300;28;20125;-64
2022/01/29 09:09:40;;;;;;;13.88;5.30;;;;;;;;;;5053063;28;20037;-63
2022/01/29 09:12:07;;;;;;;28.65;12.15;;;;;;;;;;5053341;28;20021;-64
2022/01/29 09:14:33;;;;;;;19.23;8.32;;;;;;;;;;5052309;28;20052;-64
2022/01/29 09:16:59;;;;;;;10.68;3.55;;;;;;;;;;5053275;28;20025;-64
2022/01/29 09:19:25;;;;;;;44.63;20.40;;;;;;;;;;5052956;28;20037;-64
2022/01/29 09:21:51;;;;;;;32.20;12.63;;;;;;;;;;5052989;28;20017;-64
2022/01/29 09:24:17;;;;;;;28.77;10.02;;;;;;;;;;5052844;28;20025;-63
2022/01/29 09:26:43;;;;;;;17.70;7.45;;;;;;;;;;5052899;28;20037;-61
2022/01/29 09:29:09;;;;;;;29.90;11.00;;;;;;;;;;5053063;28;20392;-61
2022/01/29 09:31:35;;;;;;;80.95;34.05;;;;;;;;;;5052860;28;20529;-62
2022/01/29 09:34:02;;;;;;;15.48;6.20;;;;;;;;;;5052825;28;20032;-62
2022/01/29 09:36:28;;;;;;;31.05;12.57;;;;;;;;;;5052856;28;20059;-62
2022/01/29 09:38:54;;;;;;;8.00;3.47;;;;;;;;;;5052574;28;20025;-62
2022/01/29 09:41:24;;;;;;;12.50;5.05;;;;;;;;;;5052520;28;20558;-61
2022/01/29 09:43:50;;;;;;;8.95;3.47;;;;;;;;;;5052647;28;20040;-61
2022/01/29 09:46:16;;;;;;;13.90;5.75;;;;;;;;;;5052703;28;20384;-62
2022/01/29 09:48:44;;;;;;;8.23;4.07;;;;;;;;;;5052575;28;20064;-64
2022/01/29 09:51:12;;;;;;;11.20;4.78;;;;;;;;;;5052553;28;20029;-62
2022/01/29 09:53:39;;;;;;;8.98;3.50;;;;;;;;;;5052286;28;20025;-61
2022/01/29 09:56:05;;;;;;;12.35;6.30;;;;;;;;;;5052480;28;20028;-61
2022/01/29 09:58:31;;;;;;;11.00;4.20;;;;;;;;;;5052295;28;20021;-63
2022/01/29 10:00:57;;;;;;;11.73;4.53;;;;;;;;;;5052340;28;20021;-63
2022/01/29 10:03:24;;;;;;;10.38;4.30;;;;;;;;;;5051582;28;20032;-64
2022/01/29 10:05:51;;;;;;;9.98;3.60;;;;;;;;;;5051900;28;20029;-63
2022/01/29 10:08:18;;;;;;;9.65;4.00;;;;;;;;;;5051684;28;20045;-63
2022/01/29 10:10:46;;;;;;;13.43;4.03;;;;;;;;;;5051260;28;20033;-64
2022/01/29 10:13:41;;;;;;;8.75;3.55;;;;;;;;;;5049793;28;20439;-63
2022/01/29 10:16:12;;;;;;;8.57;3.90;;;;;;;;;;4970877;28;20035;-63
2022/01/29 10:18:40;;;;;;;11.07;5.35;;;;;;;;;;4970638;28;20062;-63
2022/01/29 10:21:11;;;;;;;8.38;3.60;;;;;;;;;;4970668;28;20038;-63
2022/01/29 10:23:37;;;;;;;14.23;5.28;;;;;;;;;;4970364;28;20558;-63
2022/01/29 10:26:04;;;;;;;17.30;4.10;;;;;;;;;;4969931;28;20039;-63
2022/01/29 10:28:31;;;;;;;8.48;3.47;;;;;;;;;;4970360;28;20113;-63
2022/01/29 10:30:59;;;;;;;10.18;4.32;;;;;;;;;;4970597;28;20034;-63
2022/01/29 10:33:28;;;;;;;5.53;3.20;;;;;;;;;;4970313;28;20495;-63
2022/01/29 10:35:55;;;;;;;17.27;7.03;;;;;;;;;;4970534;28;20039;-63
2022/01/29 10:38:23;;;;;;;19.05;6.97;;;;;;;;;;4970187;28;20027;-63
2022/01/29 10:41:07;;;;;;;19.52;7.97;;;;;;;;;;4970498;28;20042;-63
2022/01/29 10:43:34;;;;;;;13.55;5.53;;;;;;;;;;4970353;28;20646;-63
2022/01/29 10:46:00;;;;;;;11.45;4.88;;;;;;;;;;4970408;28;20031;-63
2022/01/29 10:48:42;;;;;;;12.40;4.68;;;;;;;;;;4970323;28;20038;-64
2022/01/29 10:51:11;;;;;;;13.27;5.40;;;;;;;;;;4970094;28;20163;-64
2022/01/29 10:53:37;;;;;;;18.65;8.73;;;;;;;;;;5047801;28;20041;-63
2022/01/29 10:56:04;;;;;;;68.18;30.52;;;;;;;;;;5051200;28;20115;-63
2022/01/29 10:58:30;;;;;;;82.00;37.78;;;;;;;;;;5050856;28;20546;-63
2022/01/29 11:01:15;;;;;;;42.08;18.90;;;;;;;;;;5051260;28;20066;-63
2022/01/29 11:03:41;;;;;;;15.52;5.93;;;;;;;;;;5051003;28;20044;-63
2022/01/29 11:06:09;;;;;;;11.07;5.25;;;;;;;;;;5051120;28;20091;-63
2022/01/29 11:08:35;;;;;;;12.23;4.78;;;;;;;;;;5050756;28;20031;-63
2022/01/29 11:11:02;;;;;;;13.18;5.95;;;;;;;;;;5050900;28;20120;-63
2022/01/29 11:13:28;;;;;;;18.83;8.27;;;;;;;;;;5050496;28;20098;-63
2022/01/29 11:15:56;;;;;;;14.05;6.95;;;;;;;;;;5051068;28;20112;-63
2022/01/29 11:18:24;;;;;;;11.90;5.20;;;;;;;;;;5050577;28;20498;-63
2022/01/29 11:20:51;;;;;;;11.93;5.55;;;;;;;;;;5050975;28;20219;-63
2022/01/29 11:23:17;;;;;;;12.23;5.82;;;;;;;;;;5050294;28;20100;-63
2022/01/29 11:25:43;;;;;;;13.10;6.45;;;;;;;;;;5049726;28;20037;-63
2022/01/29 11:28:13;;;;;;;14.95;7.13;;;;;;;;;;5050104;28;20109;-64
2022/01/29 11:30:42;;;;;;;13.50;6.38;;;;;;;;;;5050334;28;20087;-64
2022/01/29 11:33:08;;;;;;;15.35;6.72;;;;;;;;;;5050414;28;20476;-63
2022/01/29 11:35:49;;;;;;;11.80;5.35;;;;;;;;;;5049898;28;20039;-64
2022/01/29 11:38:27;;;;;;;11.25;5.05;;;;;;;;;;5054218;28;20029;-63
2022/01/29 11:40:59;;;;;;;11.68;5.53;;;;;;;;;;5054842;28;20025;-63
2022/01/29 11:43:26;;;;;;;16.83;6.22;;;;;;;;;;5054708;28;20036;-63
2022/01/29 11:45:55;;;;;;;17.70;6.15;;;;;;;;;;5054732;28;20028;-63
2022/01/29 11:48:31;;;;;;;11.32;5.72;;;;;;;;;;5054640;28;20032;-63
2022/01/29 11:50:58;;;;;;;13.65;5.32;;;;;;;;;;5054714;28;20060;-63
2022/01/29 11:53:26;;;;;;;13.65;6.03;;;;;;;;;;5054226;28;20111;-63
2022/01/29 11:55:56;;;;;;;12.02;4.57;;;;;;;;;;5052881;28;20131;-63
2022/01/29 11:58:26;;;;;;;11.00;4.30;;;;;;;;;;5054580;28;20484;-63
2022/01/29 12:00:55;;;;;;;7.35;3.80;;;;;;;;;;5054607;28;20025;-63
2022/01/29 12:06:06;;;;;;;11.65;4.25;;;;;;;;;;5054424;28;20116;-64
2022/01/29 12:08:38;;;;;;;8.02;4.28;;;;;;;;;;5054251;28;20423;-64
2022/01/29 12:11:11;;;;;;;11.68;4.03;;;;;;;;;;5054357;28;20036;-63
2022/01/29 12:13:37;;;;;;;7.15;3.40;;;;;;;;;;5054032;28;20052;-63
2022/01/29 12:16:05;;;;;;;9.25;3.50;;;;;;;;;;5054480;28;20096;-63
2022/01/29 12:18:34;;;;;;;12.68;4.60;;;;;;;;;;5054173;28;20060;-63
2022/01/29 12:21:00;;;;;;;10.63;4.75;;;;;;;;;;5054199;28;20078;-63
2022/01/29 12:23:27;;;;;;;6.68;3.33;;;;;;;;;;5054040;28;20213;-63
2022/01/29 12:25:57;;;;;;;10.77;4.13;;;;;;;;;;5054182;28;20124;-63
2022/01/29 12:28:23;;;;;;;10.98;4.68;;;;;;;;;;5053917;28;20025;-63
2022/01/29 12:30:49;;;;;;;8.10;3.97;;;;;;;;;;5053811;28;20079;-63
2022/01/29 12:33:20;;;;;;;8.13;3.50;;;;;;;;;;5053875;28;20021;-63
2022/01/29 12:35:46;;;;;;;6.95;3.80;;;;;;;;;;5053539;28;20032;-64
2022/01/29 12:38:14;;;;;;;8.55;4.20;;;;;;;;;;5051869;28;20037;-63
2022/01/29 12:40:41;;;;;;;10.15;4.25;;;;;;;;;;5053515;28;20055;-63
2022/01/29 12:43:21;;;;;;;11.55;4.25;;;;;;;;;;5053679;28;20461;-63
2022/01/29 12:45:48;;;;;;;8.80;3.90;;;;;;;;;;5053470;28;20408;-64
2022/01/29 12:48:14;;;;;;;10.38;4.63;;;;;;;;;;5051096;28;20044;-64
2022/01/29 12:50:41;;;;;;;11.10;4.45;;;;;;;;;;5053867;28;20028;-63
2022/01/29 12:53:11;;;;;;;16.42;5.55;;;;;;;;;;5052971;28;20056;-64
2022/01/29 12:55:38;;;;;;;11.25;4.80;;;;;;;;;;5052990;28;20427;-63
2022/01/29 12:58:05;;;;;;;11.80;5.45;;;;;;;;;;5052922;28;20112;-64
2022/01/29 13:00:31;;;;;;;11.48;5.30;;;;;;;;;;5053149;28;20037;-64
2022/01/29 13:03:27;;;;;;;10.88;5.85;;;;;;;;;;5052933;28;20033;-64
2022/01/29 13:05:53;;;;;;;14.25;5.53;;;;;;;;;;5051255;28;20037;-64
2022/01/29 13:08:27;;;;;;;12.35;6.38;;;;;;;;;;5052814;28;20059;-64
2022/01/29 13:10:53;;;;;;;14.15;6.20;;;;;;;;;;5052726;28;20033;-63
2022/01/29 13:13:25;;;;;;;14.73;6.05;;;;;;;;;;5052820;28;20056;-64
2022/01/29 13:15:52;;;;;;;11.25;5.47;;;;;;;;;;5053181;28;20112;-64
2022/01/29 13:18:18;;;;;;;14.27;5.97;;;;;;;;;;5053234;28;20084;-64
2022/01/29 13:20:44;;;;;;;13.15;5.38;;;;;;;;;;5052929;28;20041;-64
2022/01/29 13:23:10;;;;;;;15.55;6.07;;;;;;;;;;5052646;28;20032;-65
2022/01/29 13:25:39;;;;;;;11.23;5.72;;;;;;;;;;5052964;28;20104;-65
2022/01/29 13:28:13;;;;;;;14.77;6.53;;;;;;;;;;5052637;28;20089;-65
2022/01/29 13:30:40;;;;;;;13.68;6.15;;;;;;;;;;5052738;28;20037;-63
2022/01/29 13:33:11;;;;;;;13.38;6.25;;;;;;;;;;5052344;28;20032;-63
2022/01/29 13:35:47;;;;;;;13.60;6.35;;;;;;;;;;5052604;28;20074;-63
2022/01/29 13:38:19;;;;;;;19.85;8.60;;;;;;;;;;5052393;28;20029;-63
2022/01/29 13:40:47;;;;;;;17.38;7.35;;;;;;;;;;5052530;28;20029;-64
2022/01/29 13:43:14;;;;;;;13.25;6.68;;;;;;;;;;5052410;28;20029;-63
2022/01/29 13:46:10;;;;;;;15.05;6.47;;;;;;;;;;5052202;28;20028;-63
2022/01/29 13:48:50;;;;;;;16.30;6.70;;;;;;;;;;5035162;28;20041;-63
2022/01/29 13:51:36;;;;;;;9.00;5.03;;;;;;;;;;5052343;28;20376;-63
2022/01/29 13:54:04;;;;;;;13.35;7.22;;;;;;;;;;5052179;28;20028;-63
2022/01/29 13:56:31;;;;;;;15.90;7.53;;;;;;;;;;5052191;28;20061;-63
2022/01/29 13:58:59;;;;;;;18.95;8.40;;;;;;;;;;5052013;28;20033;-64
2022/01/29 14:01:34;;;;;;;16.95;8.32;;;;;;;;;;5052089;28;20025;-64
2022/01/29 14:04:00;;;;;;;14.23;6.22;;;;;;;;;;5051903;28;20388;-64
2022/01/29 14:06:39;;;;;;;15.70;6.68;;;;;;;;;;5052072;28;20033;-64
2022/01/29 14:09:12;;;;;;;14.55;6.88;;;;;;;;;;5051643;28;20040;-63
2022/01/29 14:11:54;;;;;;;16.40;7.80;;;;;;;;;;5052122;28;20029;-63
2022/01/29 14:14:21;;;;;;;19.15;8.00;;;;;;;;;;5051677;28;20148;-63
2022/01/29 14:16:47;;;;;;;20.42;8.77;;;;;;;;;;5051815;28;20044;-63
2022/01/29 14:19:18;;;;;;;13.98;7.53;;;;;;;;;;5052066;28;20512;-63
2022/01/29 14:21:44;;;;;;;21.30;8.48;;;;;;;;;;5051336;28;20067;-63
2022/01/29 14:24:10;;;;;;;16.17;8.70;;;;;;;;;;5051753;28;20040;-63
2022/01/29 14:26:37;;;;;;;18.05;7.70;;;;;;;;;;5051872;28;20103;-63
2022/01/29 14:29:03;;;;;;;13.88;6.50;;;;;;;;;;5051678;28;20461;-63
2022/01/29 14:31:29;;;;;;;17.25;8.18;;;;;;;;;;5051660;28;20436;-63
2022/01/29 14:33:55;;;;;;;17.42;7.97;;;;;;;;;;5050173;28;20025;-63
2022/01/29 14:36:21;;;;;;;17.85;7.60;;;;;;;;;;5051612;28;20103;-63
2022/01/29 14:38:47;;;;;;;31.13;16.05;;;;;;;;;;5051300;28;20025;-63
2022/01/29 14:41:13;;;;;;;14.15;6.32;;;;;;;;;;5051350;28;20041;-63
2022/01/29 14:43:40;;;;;;;15.55;8.15;;;;;;;;;;5051127;28;20021;-64
2022/01/29 14:46:06;;;;;;;15.35;7.85;;;;;;;;;;5051177;28;20104;-64
2022/01/29 14:48:32;;;;;;;17.83;7.53;;;;;;;;;;5050588;28;20131;-63